^^
Station Historical Data
Daily Summary for August 24, 2017 Units:  English    Metric   Both
« Previous Day
Next Day »
Daily Weekly Monthly Yearly Custom
  High: Low: Average:
Temperature: 77.8 °F 60.5 °F 69 °F
Dew Point: 60.2 °F 50.3 °F 55.8 °F
Humidity: 93% 39% 65%
Wind Speed: 5.0mph 0.0mph 0.7mph
Wind Gust: 12.0mph - -
Wind- - West
Pressure: 29.99 in 29.88 in -
Precipitation: 0.00 in    
Historical Graphs
 
 
Tabular Data for August 24, 2017
Time Temperature Dew Point Pressure Wind Wind Speed Wind Gust Humidity Rainfall Rate (Hourly) Conditions
00:00 62.8 °F 58.2 °F 29.88 in Calm     85% 0.00 in RA
00:15 62.4 °F 58.5 °F 29.88 in Calm     87% 0.00 in CLR
00:30 62.2 °F 58.9 °F 29.88 in Calm     89% 0.00 in CLR
00:45 62.8 °F 59.2 °F 29.88 in Calm     88% 0.00 in CLR
01:00 62.3 °F 59.0 °F 29.88 in Calm     89% 0.00 in CLR
02:15 60.9 °F 58.9 °F 29.88 in Calm     93% 0.00 in CLR
02:30 61.3 °F 59.0 °F 29.88 in Calm     92% 0.00 in CLR
02:45 61.1 °F 58.8 °F 29.88 in Calm     92% 0.00 in CLR
03:00 60.7 °F 58.4 °F 29.88 in Calm     92% 0.00 in CLR
03:15 60.5 °F 58.5 °F 29.88 in Calm   1.0 mph 93% 0.00 in CLR
03:30 62.8 °F 59.2 °F 29.89 in Calm   4.0 mph 88% 0.00 in CLR
03:45 63.5 °F 60.2 °F 29.88 in Calm   2.0 mph 89% 0.00 in CLR
04:00 62.6 °F 59.6 °F 29.88 in Calm     90% 0.00 in CLR
04:15 61.9 °F 59.5 °F 29.89 in Calm   1.0 mph 92% 0.00 in FEW
04:30 62.8 °F 59.8 °F 29.89 in Calm   2.0 mph 90% 0.00 in FEW
04:45 62.5 °F 59.8 °F 29.89 in Calm     91% 0.00 in FEW
05:00 62.4 °F 59.1 °F 29.89 in Calm   1.0 mph 89% 0.00 in FEW
05:15 63.0 °F 58.4 °F 29.90 in Calm   1.0 mph 85% 0.00 in CLR
05:30 63.3 °F 58.7 °F 29.90 in Calm   2.0 mph 85% 0.00 in CLR
05:45 62.9 °F 58.6 °F 29.91 in Calm   2.0 mph 86% 0.00 in CLR
06:00 62.5 °F 57.6 °F 29.91 in Calm   1.0 mph 84% 0.00 in CLR
06:15 61.5 °F 57.3 °F 29.92 in Calm   1.0 mph 86% 0.00 in CLR
06:30 61.0 °F 57.1 °F 29.92 in Calm     87% 0.00 in CLR
06:45 61.5 °F 56.0 °F 29.93 in Calm   2.0 mph 82% 0.00 in CLR
07:00 62.0 °F 55.8 °F 29.93 in Calm   4.0 mph 80% 0.00 in CLR
07:15 62.1 °F 55.8 °F 29.94 in Calm   1.0 mph 80% 0.00 in CLR
07:30 62.3 °F 56.0 °F 29.94 in Calm   3.0 mph 80% 0.00 in CLR
07:45 62.7 °F 56.4 °F 29.94 in Calm   1.0 mph 80% 0.00 in CLR
08:00 63.5 °F 56.9 °F 29.94 in Calm   4.0 mph 79% 0.00 in CLR
08:15 63.9 °F 57.3 °F 29.95 in Calm   3.0 mph 79% 0.00 in FEW
08:30 65.0 °F 57.3 °F 29.95 in Calm   1.0 mph 76% 0.00 in FEW
08:45 66.4 °F 57.9 °F 29.96 in Calm   3.0 mph 74% 0.00 in FEW
09:00 67.3 °F 58.0 °F 29.96 in NW 1.0 mph 6.0 mph 72% 0.00 in FEW
09:15 68.5 °F 57.9 °F 29.96 in Calm   6.0 mph 69% 0.00 in CLR
09:30 69.7 °F 58.2 °F 29.96 in Calm   5.0 mph 67% 0.00 in CLR
09:45 69.9 °F 58.0 °F 29.96 in Calm   6.0 mph 66% 0.00 in CLR
10:00 69.7 °F 58.3 °F 29.96 in NNE 3.0 mph 5.0 mph 67% 0.00 in CLR
10:15 70.6 °F 59.1 °F 29.96 in NNW 1.0 mph 6.0 mph 67% 0.00 in CLR
10:30 70.9 °F 58.5 °F 29.96 in NNW 1.0 mph 6.0 mph 65% 0.00 in CLR
10:45 71.0 °F 57.8 °F 29.95 in North 2.0 mph 9.0 mph 63% 0.00 in CLR
11:00 71.8 °F 58.1 °F 29.95 in Calm   8.0 mph 62% 0.00 in CLR
11:15 73.1 °F 58.4 °F 29.95 in Calm   9.0 mph 60% 0.00 in CLR
11:30 72.9 °F 57.3 °F 29.95 in NNW 2.0 mph 8.0 mph 58% 0.00 in CLR
11:45 73.5 °F 55.3 °F 29.95 in NNW 2.0 mph 9.0 mph 53% 0.00 in CLR
12:00 74.0 °F 56.3 °F 29.95 in NW 2.0 mph 9.0 mph 54% 0.00 in CLR
12:15 74.6 °F 56.3 °F 29.94 in WNW 3.0 mph 6.0 mph 53% 0.00 in FEW
12:30 75.1 °F 56.8 °F 29.94 in WNW 1.0 mph 5.0 mph 53% 0.00 in FEW
12:45 74.8 °F 54.9 °F 29.94 in West 3.0 mph 10.0 mph 50% 0.00 in FEW
13:00 75.2 °F 56.3 °F 29.94 in North 1.0 mph 8.0 mph 52% 0.00 in FEW
13:15 75.7 °F 56.3 °F 29.94 in North 2.0 mph 7.0 mph 51% 0.00 in FEW
13:30 75.7 °F 55.7 °F 29.93 in NW 1.0 mph 9.0 mph 50% 0.00 in FEW
13:45 75.4 °F 55.4 °F 29.93 in WNW 5.0 mph 8.0 mph 50% 0.00 in FEW
14:00 76.2 °F 54.5 °F 29.92 in West 1.0 mph 9.0 mph 47% 0.00 in FEW
14:15 76.7 °F 54.4 °F 29.92 in NNW 2.0 mph 8.0 mph 46% 0.00 in FEW
14:30 76.7 °F 55.0 °F 29.92 in North 3.0 mph 10.0 mph 47% 0.00 in FEW
14:45 77.8 °F 51.6 °F 29.93 in West 2.0 mph 8.0 mph 40% 0.00 in FEW
15:15 77.6 °F 52.0 °F 29.93 in NW 1.0 mph 8.0 mph 41% 0.00 in FEW
15:30 77.8 °F 52.2 °F 29.93 in WSW 5.0 mph 7.0 mph 41% 0.00 in FEW
15:45 77.6 °F 50.7 °F 29.92 in SW 5.0 mph 9.0 mph 39% 0.00 in FEW
16:00 77.3 °F 50.4 °F 29.92 in NW 3.0 mph 12.0 mph 39% 0.00 in FEW
16:15 77.2 °F 50.3 °F 29.93 in West 3.0 mph 8.0 mph 39% 0.00 in FEW
16:30 77.4 °F 50.5 °F 29.93 in Calm   8.0 mph 39% 0.00 in FEW
16:45 77.0 °F 50.8 °F 29.93 in NW 1.0 mph 8.0 mph 40% 0.00 in FEW
17:00 76.9 °F 50.7 °F 29.93 in WNW 2.0 mph 7.0 mph 40% 0.00 in FEW
17:15 77.5 °F 52.0 °F 29.94 in WSW 1.0 mph 6.0 mph 41% 0.00 in FEW
17:30 77.5 °F 51.9 °F 29.94 in SW 2.0 mph 8.0 mph 41% 0.00 in FEW
17:45 77.5 °F 52.6 °F 29.94 in Calm   6.0 mph 42% 0.00 in FEW
18:00 77.4 °F 51.9 °F 29.94 in SW 2.0 mph 5.0 mph 41% 0.00 in FEW
18:15 76.7 °F 51.9 °F 29.93 in SW 2.0 mph 7.0 mph 42% 0.00 in FEW
18:30 76.3 °F 52.2 °F 29.94 in Calm   8.0 mph 43% 0.00 in FEW
18:45 75.8 °F 52.9 °F 29.94 in Calm   6.0 mph 45% 0.00 in FEW
19:00 74.8 °F 52.6 °F 29.94 in SSW 1.0 mph 6.0 mph 46% 0.00 in FEW
19:15 73.3 °F 52.4 °F 29.94 in SW 1.0 mph 6.0 mph 48% 0.00 in FEW
19:30 72.4 °F 52.7 °F 29.94 in Calm   4.0 mph 50% 0.00 in FEW
19:45 71.5 °F 53.0 °F 29.94 in Calm   2.0 mph 52% 0.00 in FEW
20:00 71.1 °F 53.1 °F 29.95 in Calm   3.0 mph 53% 0.00 in FEW
20:15 70.3 °F 53.4 °F 29.95 in Calm   1.0 mph 55% 0.00 in FEW
20:30 68.8 °F 54.4 °F 29.96 in Calm     60% 0.00 in FEW
20:45 67.6 °F 55.0 °F 29.96 in Calm     64% 0.00 in FEW
21:00 66.9 °F 54.7 °F 29.97 in Calm     65% 0.00 in FEW
21:15 67.2 °F 54.6 °F 29.97 in Calm     64% 0.00 in FEW
21:30 67.3 °F 54.3 °F 29.97 in Calm   2.0 mph 63% 0.00 in FEW
21:45 67.6 °F 54.2 °F 29.97 in Calm   1.0 mph 62% 0.00 in FEW
22:00 68.3 °F 53.4 °F 29.97 in Calm   5.0 mph 59% 0.00 in FEW
22:15 68.7 °F 53.3 °F 29.97 in Calm   4.0 mph 58% 0.00 in FEW
22:30 68.0 °F 54.0 °F 29.97 in Calm   5.0 mph 61% 0.00 in FEW
22:45 67.1 °F 54.9 °F 29.97 in Calm     65% 0.00 in FEW
23:00 65.4 °F 54.6 °F 29.97 in Calm     68% 0.00 in FEW
23:15 64.2 °F 55.0 °F 29.98 in Calm   2.0 mph 72% 0.00 in FEW
23:30 63.6 °F 55.2 °F 29.98 in Calm   1.0 mph 74% 0.00 in FEW
23:45 63.1 °F 55.4 °F 29.99 in Calm   1.0 mph 76% 0.00 in FEW
TarryTown NY Weather
Compliments of Weather Underground - 1.5 mb